sensor_id;sensor_type;location;lat;lon;timestamp;pressure;altitude;pressure_sealevel;temperature;humidity
10348;BME280;5220;43.192;23.284;2023-12-29T00:01:55;97553.78;;;5.73;100.00
10348;BME280;5220;43.192;23.284;2023-12-29T00:04:23;97551.06;;;5.76;100.00
10348;BME280;5220;43.192;23.284;2023-12-29T00:06:49;97550.13;;;5.77;100.00
10348;BME280;5220;43.192;23.284;2023-12-29T00:09:16;97550.22;;;5.75;100.00
10348;BME280;5220;43.192;23.284;2023-12-29T00:11:45;97553.50;;;5.79;100.00
10348;BME280;5220;43.192;23.284;2023-12-29T00:14:12;97561.88;;;5.84;100.00
10348;BME280;5220;43.192;23.284;2023-12-29T00:16:38;97563.41;;;5.69;100.00
10348;BME280;5220;43.192;23.284;2023-12-29T00:19:05;97570.06;;;5.73;100.00
10348;BME280;5220;43.192;23.284;2023-12-29T00:21:33;97569.94;;;5.76;100.00
10348;BME280;5220;43.192;23.284;2023-12-29T00:24:00;97565.91;;;5.71;100.00
10348;BME280;5220;43.192;23.284;2023-12-29T00:26:26;97564.47;;;5.64;100.00
10348;BME280;5220;43.192;23.284;2023-12-29T00:28:53;97565.28;;;5.66;100.00
10348;BME280;5220;43.192;23.284;2023-12-29T00:31:20;97571.06;;;5.71;100.00
10348;BME280;5220;43.192;23.284;2023-12-29T00:33:47;97573.59;;;5.72;100.00
10348;BME280;5220;43.192;23.284;2023-12-29T00:36:17;97577.34;;;5.65;100.00
10348;BME280;5220;43.192;23.284;2023-12-29T00:38:45;97576.69;;;5.00;100.00
10348;BME280;5220;43.192;23.284;2023-12-29T00:41:12;97580.81;;;5.24;100.00
10348;BME280;5220;43.192;23.284;2023-12-29T00:43:38;97583.59;;;5.39;100.00
10348;BME280;5220;43.192;23.284;2023-12-29T00:46:05;97580.75;;;5.46;100.00
10348;BME280;5220;43.192;23.284;2023-12-29T00:48:32;97577.78;;;5.55;100.00
10348;BME280;5220;43.192;23.284;2023-12-29T00:51:00;97576.88;;;5.56;100.00
10348;BME280;5220;43.192;23.284;2023-12-29T00:53:28;97573.09;;;5.44;100.00
10348;BME280;5220;43.192;23.284;2023-12-29T00:55:56;97590.19;;;5.47;100.00
10348;BME280;5220;43.192;23.284;2023-12-29T00:58:22;97591.66;;;5.52;100.00
10348;BME280;5220;43.192;23.284;2023-12-29T01:00:49;97594.19;;;5.54;100.00
10348;BME280;5220;43.192;23.284;2023-12-29T01:03:16;97599.63;;;5.48;100.00
10348;BME280;5220;43.192;23.284;2023-12-29T01:05:42;97602.59;;;5.38;100.00
10348;BME280;5220;43.192;23.284;2023-12-29T01:08:09;97593.75;;;5.44;100.00
10348;BME280;5220;43.192;23.284;2023-12-29T01:10:36;97599.06;;;5.39;100.00
10348;BME280;5220;43.192;23.284;2023-12-29T01:13:04;97600.06;;;5.37;100.00
10348;BME280;5220;43.192;23.284;2023-12-29T01:15:31;97597.72;;;5.31;100.00
10348;BME280;5220;43.192;23.284;2023-12-29T01:17:58;97595.31;;;5.26;100.00
10348;BME280;5220;43.192;23.284;2023-12-29T01:20:24;97595.19;;;5.29;100.00
10348;BME280;5220;43.192;23.284;2023-12-29T01:22:51;97590.44;;;5.20;100.00
10348;BME280;5220;43.192;23.284;2023-12-29T01:25:17;97591.69;;;5.32;100.00
10348;BME280;5220;43.192;23.284;2023-12-29T01:27:44;97602.00;;;5.32;100.00
10348;BME280;5220;43.192;23.284;2023-12-29T01:30:12;97586.81;;;5.24;100.00
10348;BME280;5220;43.192;23.284;2023-12-29T01:32:39;97590.81;;;5.11;100.00
10348;BME280;5220;43.192;23.284;2023-12-29T01:35:06;97584.31;;;5.23;100.00
10348;BME280;5220;43.192;23.284;2023-12-29T01:37:33;97592.50;;;5.32;100.00
10348;BME280;5220;43.192;23.284;2023-12-29T01:40:00;97585.69;;;5.31;100.00
10348;BME280;5220;43.192;23.284;2023-12-29T01:42:26;97581.22;;;5.35;100.00
10348;BME280;5220;43.192;23.284;2023-12-29T01:44:53;97566.47;;;5.38;100.00
10348;BME280;5220;43.192;23.284;2023-12-29T01:47:21;97564.03;;;5.35;100.00
10348;BME280;5220;43.192;23.284;2023-12-29T01:49:49;97558.84;;;5.35;100.00
10348;BME280;5220;43.192;23.284;2023-12-29T01:52:17;97551.88;;;5.37;100.00
10348;BME280;5220;43.192;23.284;2023-12-29T01:54:46;97552.78;;;5.36;100.00
10348;BME280;5220;43.192;23.284;2023-12-29T01:57:14;97544.06;;;5.39;100.00
10348;BME280;5220;43.192;23.284;2023-12-29T01:59:41;97542.28;;;5.41;100.00
10348;BME280;5220;43.192;23.284;2023-12-29T02:02:08;97544.00;;;5.40;100.00
10348;BME280;5220;43.192;23.284;2023-12-29T02:04:38;97543.47;;;5.32;100.00
10348;BME280;5220;43.192;23.284;2023-12-29T02:07:06;97538.28;;;5.34;100.00
10348;BME280;5220;43.192;23.284;2023-12-29T02:09:34;97543.28;;;5.37;100.00
10348;BME280;5220;43.192;23.284;2023-12-29T02:12:00;97537.56;;;5.30;100.00
10348;BME280;5220;43.192;23.284;2023-12-29T02:14:28;97525.44;;;5.32;100.00
10348;BME280;5220;43.192;23.284;2023-12-29T02:17:01;97528.00;;;5.32;100.00
10348;BME280;5220;43.192;23.284;2023-12-29T02:19:40;97523.91;;;5.28;100.00
10348;BME280;5220;43.192;23.284;2023-12-29T02:22:08;97518.66;;;5.30;100.00
10348;BME280;5220;43.192;23.284;2023-12-29T02:24:35;97518.75;;;5.28;100.00
10348;BME280;5220;43.192;23.284;2023-12-29T02:27:11;97514.56;;;5.26;100.00
10348;BME280;5220;43.192;23.284;2023-12-29T02:29:40;97519.72;;;5.26;100.00
10348;BME280;5220;43.192;23.284;2023-12-29T02:32:11;97516.47;;;5.21;100.00
10348;BME280;5220;43.192;23.284;2023-12-29T02:34:40;97509.53;;;5.23;100.00
10348;BME280;5220;43.192;23.284;2023-12-29T02:37:08;97513.84;;;5.22;100.00
10348;BME280;5220;43.192;23.284;2023-12-29T02:39:36;97510.22;;;4.86;100.00
10348;BME280;5220;43.192;23.284;2023-12-29T02:42:05;97509.03;;;4.95;100.00
10348;BME280;5220;43.192;23.284;2023-12-29T02:44:31;97502.63;;;4.83;100.00
10348;BME280;5220;43.192;23.284;2023-12-29T02:46:58;97506.63;;;4.90;100.00
10348;BME280;5220;43.192;23.284;2023-12-29T02:49:26;97504.31;;;5.04;100.00
10348;BME280;5220;43.192;23.284;2023-12-29T02:51:52;97493.66;;;5.12;100.00
10348;BME280;5220;43.192;23.284;2023-12-29T02:54:19;97492.81;;;5.11;100.00
10348;BME280;5220;43.192;23.284;2023-12-29T02:56:46;97480.84;;;5.10;100.00
10348;BME280;5220;43.192;23.284;2023-12-29T02:59:14;97478.16;;;5.13;100.00
10348;BME280;5220;43.192;23.284;2023-12-29T03:01:40;97480.31;;;5.22;100.00
10348;BME280;5220;43.192;23.284;2023-12-29T03:04:07;97468.31;;;5.21;100.00
10348;BME280;5220;43.192;23.284;2023-12-29T03:06:34;97466.78;;;5.17;100.00
10348;BME280;5220;43.192;23.284;2023-12-29T03:09:00;97466.63;;;5.20;100.00
10348;BME280;5220;43.192;23.284;2023-12-29T03:11:27;97471.94;;;5.17;100.00
10348;BME280;5220;43.192;23.284;2023-12-29T03:13:54;97474.72;;;5.13;100.00
10348;BME280;5220;43.192;23.284;2023-12-29T03:16:22;97464.59;;;5.08;100.00
10348;BME280;5220;43.192;23.284;2023-12-29T03:18:49;97458.47;;;5.11;100.00
10348;BME280;5220;43.192;23.284;2023-12-29T03:21:16;97461.00;;;5.12;100.00
10348;BME280;5220;43.192;23.284;2023-12-29T03:23:42;97465.81;;;5.20;100.00
10348;BME280;5220;43.192;23.284;2023-12-29T03:26:09;97463.03;;;5.24;100.00
10348;BME280;5220;43.192;23.284;2023-12-29T03:28:36;97454.09;;;5.13;100.00
10348;BME280;5220;43.192;23.284;2023-12-29T03:31:03;97452.09;;;5.19;100.00
10348;BME280;5220;43.192;23.284;2023-12-29T03:33:32;97448.84;;;5.14;100.00
10348;BME280;5220;43.192;23.284;2023-12-29T03:35:58;97449.81;;;5.12;100.00
10348;BME280;5220;43.192;23.284;2023-12-29T03:38:25;97456.00;;;5.08;100.00
10348;BME280;5220;43.192;23.284;2023-12-29T03:40:52;97448.72;;;5.17;100.00
10348;BME280;5220;43.192;23.284;2023-12-29T03:43:18;97446.00;;;5.20;100.00
10348;BME280;5220;43.192;23.284;2023-12-29T03:45:45;97440.16;;;5.17;100.00
10348;BME280;5220;43.192;23.284;2023-12-29T03:48:12;97444.34;;;5.19;100.00
10348;BME280;5220;43.192;23.284;2023-12-29T03:50:40;97433.06;;;5.22;100.00
10348;BME280;5220;43.192;23.284;2023-12-29T03:53:06;97433.25;;;4.78;100.00
10348;BME280;5220;43.192;23.284;2023-12-29T03:55:33;97420.09;;;4.64;100.00
10348;BME280;5220;43.192;23.284;2023-12-29T03:58:00;97424.78;;;4.55;100.00
10348;BME280;5220;43.192;23.284;2023-12-29T04:00:28;97424.28;;;4.87;100.00
10348;BME280;5220;43.192;23.284;2023-12-29T04:02:55;97428.06;;;4.99;100.00
10348;BME280;5220;43.192;23.284;2023-12-29T04:05:21;97431.19;;;5.05;100.00
10348;BME280;5220;43.192;23.284;2023-12-29T04:07:49;97428.22;;;5.14;100.00
10348;BME280;5220;43.192;23.284;2023-12-29T04:10:16;97422.66;;;5.23;100.00
10348;BME280;5220;43.192;23.284;2023-12-29T04:12:43;97422.31;;;5.12;100.00
10348;BME280;5220;43.192;23.284;2023-12-29T04:15:10;97429.16;;;5.13;100.00
10348;BME280;5220;43.192;23.284;2023-12-29T04:17:37;97434.72;;;5.04;100.00
10348;BME280;5220;43.192;23.284;2023-12-29T04:20:04;97438.88;;;5.07;100.00
10348;BME280;5220;43.192;23.284;2023-12-29T04:22:31;97446.72;;;4.85;100.00
10348;BME280;5220;43.192;23.284;2023-12-29T04:25:00;97454.88;;;4.95;100.00
10348;BME280;5220;43.192;23.284;2023-12-29T04:27:27;97454.03;;;4.94;100.00
10348;BME280;5220;43.192;23.284;2023-12-29T04:29:53;97454.94;;;4.93;100.00
10348;BME280;5220;43.192;23.284;2023-12-29T04:32:20;97452.75;;;4.84;100.00
10348;BME280;5220;43.192;23.284;2023-12-29T04:34:47;97443.19;;;4.86;100.00
10348;BME280;5220;43.192;23.284;2023-12-29T04:37:14;97444.66;;;4.73;100.00
10348;BME280;5220;43.192;23.284;2023-12-29T04:39:40;97444.97;;;4.85;100.00
10348;BME280;5220;43.192;23.284;2023-12-29T04:42:08;97442.44;;;4.84;100.00
10348;BME280;5220;43.192;23.284;2023-12-29T04:44:35;97444.78;;;4.70;100.00
10348;BME280;5220;43.192;23.284;2023-12-29T04:47:02;97445.81;;;4.66;100.00
10348;BME280;5220;43.192;23.284;2023-12-29T04:49:29;97443.59;;;4.77;100.00
10348;BME280;5220;43.192;23.284;2023-12-29T04:51:56;97442.69;;;4.78;100.00
10348;BME280;5220;43.192;23.284;2023-12-29T04:54:23;97432.13;;;4.84;100.00
10348;BME280;5220;43.192;23.284;2023-12-29T04:56:50;97435.59;;;4.83;100.00
10348;BME280;5220;43.192;23.284;2023-12-29T04:59:18;97439.72;;;4.87;100.00
10348;BME280;5220;43.192;23.284;2023-12-29T05:01:45;97438.00;;;4.87;100.00
10348;BME280;5220;43.192;23.284;2023-12-29T05:04:12;97442.41;;;4.85;100.00
10348;BME280;5220;43.192;23.284;2023-12-29T05:06:40;97444.00;;;4.88;100.00
10348;BME280;5220;43.192;23.284;2023-12-29T05:09:06;97451.28;;;4.78;100.00
10348;BME280;5220;43.192;23.284;2023-12-29T05:11:33;97442.94;;;4.31;100.00
10348;BME280;5220;43.192;23.284;2023-12-29T05:14:00;97438.72;;;4.51;100.00
10348;BME280;5220;43.192;23.284;2023-12-29T05:16:28;97444.97;;;4.65;100.00
10348;BME280;5220;43.192;23.284;2023-12-29T05:18:55;97450.06;;;4.67;100.00
10348;BME280;5220;43.192;23.284;2023-12-29T05:21:21;97456.03;;;4.67;100.00
10348;BME280;5220;43.192;23.284;2023-12-29T05:23:49;97465.66;;;4.64;100.00
10348;BME280;5220;43.192;23.284;2023-12-29T05:26:16;97461.69;;;4.55;100.00
10348;BME280;5220;43.192;23.284;2023-12-29T05:28:43;97464.13;;;4.58;100.00
10348;BME280;5220;43.192;23.284;2023-12-29T05:31:09;97470.59;;;4.68;100.00
10348;BME280;5220;43.192;23.284;2023-12-29T05:33:37;97470.47;;;4.71;100.00
10348;BME280;5220;43.192;23.284;2023-12-29T05:36:08;97483.09;;;4.77;100.00
10348;BME280;5220;43.192;23.284;2023-12-29T05:38:35;97476.13;;;4.79;100.00
10348;BME280;5220;43.192;23.284;2023-12-29T05:41:03;97482.97;;;4.80;100.00
10348;BME280;5220;43.192;23.284;2023-12-29T05:43:31;97479.53;;;4.80;100.00
10348;BME280;5220;43.192;23.284;2023-12-29T05:45:58;97489.81;;;4.81;100.00
10348;BME280;5220;43.192;23.284;2023-12-29T05:48:25;97485.41;;;4.83;100.00
10348;BME280;5220;43.192;23.284;2023-12-29T05:50:53;97487.09;;;4.84;100.00
10348;BME280;5220;43.192;23.284;2023-12-29T05:53:20;97486.13;;;4.87;100.00
10348;BME280;5220;43.192;23.284;2023-12-29T05:55:47;97491.53;;;4.81;100.00
10348;BME280;5220;43.192;23.284;2023-12-29T05:58:13;97488.91;;;4.82;100.00
10348;BME280;5220;43.192;23.284;2023-12-29T06:00:40;97486.50;;;4.78;100.00
10348;BME280;5220;43.192;23.284;2023-12-29T06:03:07;97487.16;;;4.83;100.00
10348;BME280;5220;43.192;23.284;2023-12-29T06:05:34;97480.38;;;4.60;100.00
10348;BME280;5220;43.192;23.284;2023-12-29T06:08:02;97488.31;;;4.76;100.00
10348;BME280;5220;43.192;23.284;2023-12-29T06:10:29;97488.00;;;4.83;100.00
10348;BME280;5220;43.192;23.284;2023-12-29T06:12:56;97494.06;;;4.82;100.00
10348;BME280;5220;43.192;23.284;2023-12-29T06:15:23;97490.53;;;4.85;100.00
10348;BME280;5220;43.192;23.284;2023-12-29T06:17:50;97486.22;;;4.85;100.00
10348;BME280;5220;43.192;23.284;2023-12-29T06:20:16;97484.25;;;4.91;100.00
10348;BME280;5220;43.192;23.284;2023-12-29T06:22:43;97488.91;;;4.82;100.00
10348;BME280;5220;43.192;23.284;2023-12-29T06:25:12;97486.00;;;4.90;100.00
10348;BME280;5220;43.192;23.284;2023-12-29T06:27:39;97490.97;;;4.95;100.00
10348;BME280;5220;43.192;23.284;2023-12-29T06:30:07;97494.31;;;4.97;100.00
10348;BME280;5220;43.192;23.284;2023-12-29T06:32:34;97496.75;;;5.00;100.00
10348;BME280;5220;43.192;23.284;2023-12-29T06:35:00;97496.81;;;4.98;100.00
10348;BME280;5220;43.192;23.284;2023-12-29T06:37:28;97501.03;;;5.01;100.00
10348;BME280;5220;43.192;23.284;2023-12-29T06:39:55;97500.56;;;4.91;100.00
10348;BME280;5220;43.192;23.284;2023-12-29T06:42:23;97500.97;;;4.82;100.00
10348;BME280;5220;43.192;23.284;2023-12-29T06:44:50;97488.84;;;5.04;100.00
10348;BME280;5220;43.192;23.284;2023-12-29T06:47:16;97499.03;;;4.87;100.00
10348;BME280;5220;43.192;23.284;2023-12-29T06:49:43;97513.22;;;4.97;100.00
10348;BME280;5220;43.192;23.284;2023-12-29T06:52:10;97514.63;;;5.04;100.00
10348;BME280;5220;43.192;23.284;2023-12-29T06:54:36;97513.72;;;5.05;100.00
10348;BME280;5220;43.192;23.284;2023-12-29T06:57:03;97491.19;;;6.24;100.00
10348;BME280;5220;43.192;23.284;2023-12-29T06:59:31;97487.75;;;5.67;100.00
10348;BME280;5220;43.192;23.284;2023-12-29T07:01:58;97511.22;;;5.42;100.00
10348;BME280;5220;43.192;23.284;2023-12-29T07:04:24;97524.34;;;5.38;100.00
10348;BME280;5220;43.192;23.284;2023-12-29T07:06:51;97518.22;;;5.40;100.00
10348;BME280;5220;43.192;23.284;2023-12-29T07:09:18;97514.53;;;5.46;100.00
10348;BME280;5220;43.192;23.284;2023-12-29T07:11:47;97524.56;;;5.52;100.00
10348;BME280;5220;43.192;23.284;2023-12-29T07:14:14;97519.22;;;5.57;100.00
10348;BME280;5220;43.192;23.284;2023-12-29T07:16:43;97514.53;;;5.65;100.00
10348;BME280;5220;43.192;23.284;2023-12-29T07:19:10;97521.16;;;5.70;100.00
10348;BME280;5220;43.192;23.284;2023-12-29T07:21:37;97518.25;;;5.78;100.00
10348;BME280;5220;43.192;23.284;2023-12-29T07:24:04;97518.03;;;5.82;100.00
10348;BME280;5220;43.192;23.284;2023-12-29T07:26:32;97516.00;;;6.09;100.00
10348;BME280;5220;43.192;23.284;2023-12-29T07:28:59;97526.38;;;6.08;100.00
10348;BME280;5220;43.192;23.284;2023-12-29T07:31:26;97527.88;;;6.13;100.00
10348;BME280;5220;43.192;23.284;2023-12-29T07:33:54;97519.69;;;6.22;100.00
10348;BME280;5220;43.192;23.284;2023-12-29T07:36:21;97520.22;;;6.47;100.00
10348;BME280;5220;43.192;23.284;2023-12-29T07:38:48;97537.47;;;6.47;100.00
10348;BME280;5220;43.192;23.284;2023-12-29T07:41:15;97526.75;;;6.55;100.00
10348;BME280;5220;43.192;23.284;2023-12-29T07:43:42;97534.00;;;6.65;100.00
10348;BME280;5220;43.192;23.284;2023-12-29T07:46:09;97541.22;;;6.76;100.00
10348;BME280;5220;43.192;23.284;2023-12-29T07:48:35;97536.44;;;6.85;100.00
10348;BME280;5220;43.192;23.284;2023-12-29T07:51:05;97532.59;;;6.94;100.00
10348;BME280;5220;43.192;23.284;2023-12-29T07:53:32;97537.16;;;7.06;100.00
10348;BME280;5220;43.192;23.284;2023-12-29T07:55:59;97525.66;;;7.12;100.00
10348;BME280;5220;43.192;23.284;2023-12-29T07:58:25;97535.47;;;7.22;100.00
10348;BME280;5220;43.192;23.284;2023-12-29T08:00:52;97531.31;;;7.35;100.00
10348;BME280;5220;43.192;23.284;2023-12-29T08:03:19;97530.69;;;7.47;100.00
10348;BME280;5220;43.192;23.284;2023-12-29T08:05:45;97539.50;;;7.61;100.00
10348;BME280;5220;43.192;23.284;2023-12-29T08:08:14;97541.38;;;7.74;100.00
10348;BME280;5220;43.192;23.284;2023-12-29T08:10:41;97550.19;;;7.87;100.00
10348;BME280;5220;43.192;23.284;2023-12-29T08:13:07;97549.53;;;7.99;100.00
10348;BME280;5220;43.192;23.284;2023-12-29T08:15:34;97557.84;;;8.06;100.00
10348;BME280;5220;43.192;23.284;2023-12-29T08:18:02;97552.66;;;8.22;100.00
10348;BME280;5220;43.192;23.284;2023-12-29T08:20:29;97555.53;;;8.33;100.00
10348;BME280;5220;43.192;23.284;2023-12-29T08:22:56;97553.28;;;8.42;100.00
10348;BME280;5220;43.192;23.284;2023-12-29T08:25:24;97564.66;;;8.55;100.00
10348;BME280;5220;43.192;23.284;2023-12-29T08:27:51;97565.66;;;8.69;100.00
10348;BME280;5220;43.192;23.284;2023-12-29T08:30:18;97565.78;;;8.81;100.00
10348;BME280;5220;43.192;23.284;2023-12-29T08:32:44;97560.66;;;8.95;100.00
10348;BME280;5220;43.192;23.284;2023-12-29T08:35:11;97562.47;;;9.09;100.00
10348;BME280;5220;43.192;23.284;2023-12-29T08:37:38;97564.38;;;9.21;100.00
10348;BME280;5220;43.192;23.284;2023-12-29T08:40:05;97556.03;;;9.30;100.00
10348;BME280;5220;43.192;23.284;2023-12-29T08:42:35;97558.84;;;9.41;100.00
10348;BME280;5220;43.192;23.284;2023-12-29T08:45:02;97558.94;;;9.54;100.00
10348;BME280;5220;43.192;23.284;2023-12-29T08:47:30;97549.50;;;9.67;100.00
10348;BME280;5220;43.192;23.284;2023-12-29T08:49:56;97550.53;;;9.79;100.00
10348;BME280;5220;43.192;23.284;2023-12-29T08:52:23;97558.78;;;9.85;100.00
10348;BME280;5220;43.192;23.284;2023-12-29T08:54:50;97552.00;;;9.97;100.00
10348;BME280;5220;43.192;23.284;2023-12-29T08:57:16;97550.13;;;10.13;100.00
10348;BME280;5220;43.192;23.284;2023-12-29T08:59:44;97556.47;;;10.23;100.00
10348;BME280;5220;43.192;23.284;2023-12-29T09:02:11;97555.00;;;10.33;100.00
10348;BME280;5220;43.192;23.284;2023-12-29T09:04:38;97553.06;;;10.49;100.00
10348;BME280;5220;43.192;23.284;2023-12-29T09:07:04;97555.66;;;10.63;100.00
10348;BME280;5220;43.192;23.284;2023-12-29T09:09:31;97549.47;;;10.78;100.00
10348;BME280;5220;43.192;23.284;2023-12-29T09:11:58;97541.91;;;10.88;100.00
10348;BME280;5220;43.192;23.284;2023-12-29T09:14:25;97547.22;;;10.99;100.00
10348;BME280;5220;43.192;23.284;2023-12-29T09:16:53;97547.38;;;11.10;100.00
10348;BME280;5220;43.192;23.284;2023-12-29T09:19:19;97535.94;;;11.25;100.00
10348;BME280;5220;43.192;23.284;2023-12-29T09:21:46;97527.31;;;11.38;100.00
10348;BME280;5220;43.192;23.284;2023-12-29T09:24:13;97524.84;;;11.49;100.00
10348;BME280;5220;43.192;23.284;2023-12-29T09:26:39;97522.22;;;11.61;99.31
10348;BME280;5220;43.192;23.284;2023-12-29T09:29:06;97526.91;;;11.69;92.33
10348;BME280;5220;43.192;23.284;2023-12-29T09:31:33;97519.75;;;11.85;94.35
10348;BME280;5220;43.192;23.284;2023-12-29T09:34:01;97510.94;;;11.99;92.63
10348;BME280;5220;43.192;23.284;2023-12-29T09:36:27;97518.06;;;11.97;89.90
10348;BME280;5220;43.192;23.284;2023-12-29T09:38:54;97512.72;;;12.11;90.03
10348;BME280;5220;43.192;23.284;2023-12-29T09:41:23;97514.72;;;12.07;83.47
10348;BME280;5220;43.192;23.284;2023-12-29T09:43:51;97507.09;;;12.17;82.80
10348;BME280;5220;43.192;23.284;2023-12-29T09:46:18;97500.88;;;12.30;85.96
10348;BME280;5220;43.192;23.284;2023-12-29T09:48:46;97506.59;;;12.35;81.75
10348;BME280;5220;43.192;23.284;2023-12-29T09:51:15;97489.94;;;12.49;85.16
10348;BME280;5220;43.192;23.284;2023-12-29T09:53:42;97485.25;;;12.54;86.12
10348;BME280;5220;43.192;23.284;2023-12-29T09:56:08;97478.38;;;12.64;84.38
10348;BME280;5220;43.192;23.284;2023-12-29T09:58:35;97475.28;;;12.59;81.18
10348;BME280;5220;43.192;23.284;2023-12-29T10:01:04;97460.06;;;12.77;82.18
10348;BME280;5220;43.192;23.284;2023-12-29T10:03:32;97463.50;;;12.77;79.72
10348;BME280;5220;43.192;23.284;2023-12-29T10:06:00;97458.63;;;12.73;80.00
10348;BME280;5220;43.192;23.284;2023-12-29T10:08:33;97460.78;;;12.55;77.56
10348;BME280;5220;43.192;23.284;2023-12-29T10:11:01;97453.97;;;12.65;78.50
10348;BME280;5220;43.192;23.284;2023-12-29T10:13:29;97445.22;;;12.77;82.51
10348;BME280;5220;43.192;23.284;2023-12-29T10:16:04;97455.13;;;12.85;80.37
10348;BME280;5220;43.192;23.284;2023-12-29T10:18:44;97452.59;;;12.83;80.95
10348;BME280;5220;43.192;23.284;2023-12-29T10:21:17;97444.69;;;12.85;80.18
10348;BME280;5220;43.192;23.284;2023-12-29T10:23:50;97449.81;;;12.98;80.09
10348;BME280;5220;43.192;23.284;2023-12-29T10:26:19;97450.72;;;13.09;100.00
10348;BME280;5220;43.192;23.284;2023-12-29T10:28:47;97441.09;;;13.21;99.43
10348;BME280;5220;43.192;23.284;2023-12-29T10:31:15;97436.63;;;13.45;92.49
10348;BME280;5220;43.192;23.284;2023-12-29T10:33:42;97434.38;;;13.63;80.19
10348;BME280;5220;43.192;23.284;2023-12-29T10:36:09;97431.03;;;13.61;100.00
10348;BME280;5220;43.192;23.284;2023-12-29T10:38:39;97439.47;;;13.64;74.70
10348;BME280;5220;43.192;23.284;2023-12-29T10:41:12;97434.25;;;13.64;73.15
10348;BME280;5220;43.192;23.284;2023-12-29T10:43:40;97441.59;;;13.37;74.87
10348;BME280;5220;43.192;23.284;2023-12-29T10:46:08;97433.44;;;13.53;73.06
10348;BME280;5220;43.192;23.284;2023-12-29T10:48:36;97444.94;;;13.61;74.80
10348;BME280;5220;43.192;23.284;2023-12-29T10:51:03;97446.47;;;13.30;74.05
10348;BME280;5220;43.192;23.284;2023-12-29T10:53:30;97440.91;;;13.46;72.63
10348;BME280;5220;43.192;23.284;2023-12-29T10:55:57;97439.25;;;13.67;70.80
10348;BME280;5220;43.192;23.284;2023-12-29T10:58:26;97442.09;;;13.75;72.77
10348;BME280;5220;43.192;23.284;2023-12-29T11:00:54;97445.06;;;13.71;72.74
10348;BME280;5220;43.192;23.284;2023-12-29T11:03:21;97439.72;;;13.83;69.44
10348;BME280;5220;43.192;23.284;2023-12-29T11:05:48;97436.63;;;13.78;70.63
10348;BME280;5220;43.192;23.284;2023-12-29T11:08:16;97426.41;;;13.64;71.55
10348;BME280;5220;43.192;23.284;2023-12-29T11:10:43;97432.72;;;13.51;72.21
10348;BME280;5220;43.192;23.284;2023-12-29T11:13:10;97431.66;;;13.53;72.14
10348;BME280;5220;43.192;23.284;2023-12-29T11:15:42;97417.97;;;13.61;72.26
10348;BME280;5220;43.192;23.284;2023-12-29T11:18:11;97428.78;;;13.56;71.92
10348;BME280;5220;43.192;23.284;2023-12-29T11:20:39;97417.84;;;13.73;70.76
10348;BME280;5220;43.192;23.284;2023-12-29T11:23:08;97403.47;;;13.45;69.39
10348;BME280;5220;43.192;23.284;2023-12-29T11:25:36;97414.66;;;13.70;71.95
10348;BME280;5220;43.192;23.284;2023-12-29T11:28:05;97420.94;;;13.78;69.17
10348;BME280;5220;43.192;23.284;2023-12-29T11:30:33;97418.34;;;13.78;68.20
10348;BME280;5220;43.192;23.284;2023-12-29T11:33:06;97418.78;;;13.83;71.45
10348;BME280;5220;43.192;23.284;2023-12-29T11:35:39;97413.31;;;13.97;67.81
10348;BME280;5220;43.192;23.284;2023-12-29T11:38:26;97417.69;;;14.08;81.44
10348;BME280;5220;43.192;23.284;2023-12-29T11:41:03;97407.25;;;13.97;71.34
10348;BME280;5220;43.192;23.284;2023-12-29T11:43:32;97410.31;;;14.13;67.27
10348;BME280;5220;43.192;23.284;2023-12-29T11:45:59;97394.81;;;14.21;65.59
10348;BME280;5220;43.192;23.284;2023-12-29T11:48:55;97394.78;;;14.32;65.23
10348;BME280;5220;43.192;23.284;2023-12-29T11:51:32;97394.66;;;14.45;63.61
10348;BME280;5220;43.192;23.284;2023-12-29T11:54:00;97387.19;;;14.40;64.24
10348;BME280;5220;43.192;23.284;2023-12-29T11:56:34;97387.50;;;14.04;66.01
10348;BME280;5220;43.192;23.284;2023-12-29T11:59:15;97386.19;;;13.98;68.69
10348;BME280;5220;43.192;23.284;2023-12-29T12:01:42;97377.84;;;14.16;66.98
10348;BME280;5220;43.192;23.284;2023-12-29T12:04:39;97380.06;;;13.88;72.94
10348;BME280;5220;43.192;23.284;2023-12-29T12:07:08;97381.16;;;14.18;70.53
10348;BME280;5220;43.192;23.284;2023-12-29T12:09:35;97373.44;;;14.16;70.42
10348;BME280;5220;43.192;23.284;2023-12-29T12:12:02;97376.16;;;14.26;66.95
10348;BME280;5220;43.192;23.284;2023-12-29T12:14:44;97368.31;;;14.26;67.45
10348;BME280;5220;43.192;23.284;2023-12-29T12:17:11;97370.38;;;14.43;64.56
10348;BME280;5220;43.192;23.284;2023-12-29T12:19:39;97370.28;;;14.44;63.17
10348;BME280;5220;43.192;23.284;2023-12-29T12:22:06;97370.03;;;14.47;63.45
10348;BME280;5220;43.192;23.284;2023-12-29T12:24:35;97366.19;;;14.51;63.20
10348;BME280;5220;43.192;23.284;2023-12-29T12:27:02;97362.97;;;14.48;64.62
10348;BME280;5220;43.192;23.284;2023-12-29T12:29:29;97370.97;;;14.46;66.10
10348;BME280;5220;43.192;23.284;2023-12-29T12:31:56;97365.56;;;14.59;64.43
10348;BME280;5220;43.192;23.284;2023-12-29T12:34:24;97366.97;;;14.63;65.42
10348;BME280;5220;43.192;23.284;2023-12-29T12:36:53;97363.63;;;14.61;67.77
10348;BME280;5220;43.192;23.284;2023-12-29T12:39:21;97367.16;;;14.71;64.53
10348;BME280;5220;43.192;23.284;2023-12-29T12:41:49;97375.53;;;14.65;65.73
10348;BME280;5220;43.192;23.284;2023-12-29T12:44:16;97373.84;;;14.64;65.21
10348;BME280;5220;43.192;23.284;2023-12-29T12:46:49;97373.69;;;14.77;69.38
10348;BME280;5220;43.192;23.284;2023-12-29T12:49:17;97372.06;;;14.85;65.06
10348;BME280;5220;43.192;23.284;2023-12-29T12:51:44;97369.19;;;14.88;63.96
10348;BME280;5220;43.192;23.284;2023-12-29T12:54:13;97371.44;;;14.93;86.41
10348;BME280;5220;43.192;23.284;2023-12-29T12:56:43;97361.59;;;14.85;65.03
10348;BME280;5220;43.192;23.284;2023-12-29T12:59:11;97371.13;;;14.86;65.09
10348;BME280;5220;43.192;23.284;2023-12-29T13:01:38;97363.44;;;14.53;63.36
10348;BME280;5220;43.192;23.284;2023-12-29T13:04:06;97374.72;;;14.33;62.98